x

Virginia Beach 64 Nm East Of Virginia Beach, Va (44014) Wave Buoy

3:50 - Sun 14th Feb 2016 All times are EST. -5 hours from GMT.

  • Sig Wave height 8.2ft
  • Swell Direction
  • Peak Period 8s
  • Average Period 6s
  • Wind
    27mph, 34mph gusts
  • Sea Temp 50°f
  • Ar Temp 24°f
  • Sea Pressure 1028.9mb
  • Virginia Beach 64 Nm East Of Virginia Beach, Va
  • Virginia Beach 64 Nm East Of Virginia Beach, Va

More Historic Weather Station data

Upgrade to MSW Pro to gain access to the past 30 days of data for over 8000 Wavebouys and Weather Stations around the globe.

Join Pro

Comparision Forecast

View Surf forecast
   
Dom 02/14 3:50 8ft 8s 6s 27 34 mph 1028.9mb 50f 24f
2:50 8ft 7s 6s 25 34 mph 1029.2mb 49f 24f
1:50 8.5ft 8s 6s 25 36 mph 1028.9mb 49f 25f
12:50 8.5ft 8s 6s 29 38 mph 1028.6mb 50f 26f
Sáb 02/13 11:50 9ft 8s 6s 29 36 mph 1028.1mb 50f 26f
10:50 9ft 8s 6s 31 40 mph 1027.6mb 50f 27f
9:50 9ft 7s 6s 31 40 mph 1027.3mb 50f 28f
8:50 9ft 8s 6s 29 36 mph 1026.9mb 50f 29f
7:50 9ft 7s 6s 29 36 mph 1026.1mb 49f 30f
6:50 9ft 7s 6s 29 36 mph 1025.4mb 49f 30f
5:50 9ft 7s 6s 27 34 mph 1024.2mb 49f 30f
4:50 9ft 7s 5s 27 38 mph 1023.1mb 48f 31f
3:50 9ft 7s 6s 27 36 mph 1022.3mb 48f 30f
2:50 9.5ft 7s 6s 29 38 mph 1021.7mb 48f 30f
1:50 9.5ft 8s 6s 29 38 mph 1021.4mb 48f 29f
12:50 9.5ft 8s 6s 31 40 mph 1021.5mb 48f 30f
11:50 10.5ft 8s 6s 29 38 mph 1021.5mb 48f 30f
10:50 9ft 7s 6s 31 43 mph 1020.8mb 48f 30f
9:50 9ft 7s 6s 31 38 mph 1020.2mb 48f 31f
8:50 8ft 7s 5s 34 43 mph 1019.4mb 48f 32f
7:50 6.5ft 5s 5s 31 43 mph 1018.1mb 48f 34f
6:50 5.5ft 6s 5s 27 34 mph 1017.1mb 48f 35f
5:50 5ft 6s 4s 22 31 mph 1016.3mb 48f 35f
4:50 5ft 5s 4s 25 31 mph 1015.7mb 48f 35f
3:50 5.5ft 5s 4s 25 31 mph 1015.1mb 48f 35f
2:50 5ft 5s 4s 25 34 mph 1014.8mb 48f 35f
1:50 4.5ft 5s 4s 27 34 mph 1014.6mb 48f 36f
12:50 3ft 4s 4s 25 29 mph 1014.3mb 48f 36f
Sex 02/12 11:50 2.5ft 3s 3s 22 27 mph 1014.2mb 48f 37f
10:50 2ft 8s 4s 16 20 mph 1014.5mb 48f 37f
9:50 2ft 9s 4s 13 16 mph 1014.8mb 48f 36f
8:50 2ft 9s 5s 11 13 mph 1014.6mb 48f 36f
7:50 2ft 7s 5s 4 7 mph 1014.1mb 48f 36f
6:50 2ft 7s 4s 7 11 mph 1015.1mb 48f 34f
5:50 2ft 5s 5s 9 13 mph 1015.8mb 48f 33f
4:50 2.5ft 6s 5s 11 13 mph 1016.9mb 48f 31f
3:50 2.5ft 6s 5s 9 11 mph 1018.2mb 48f 30f
2:50 2.5ft 6s 5s 4 7 mph 1019.7mb 48f 30f
1:50 2.5ft 6s 5s 2 9 mph 1021mb 50f 33f
12:50 2.5ft 6s 5s 2 7 mph 1022mb 50f 32f
11:50 3ft 6s 5s 4 7 mph 1023.9mb 50f 32f
10:50 3.5ft 6s 5s 9 13 mph 1024.6mb 50f 31f
9:50 3.5ft 6s 5s 4 9 mph 1026mb 50f 31f
8:50 3.5ft 7s 5s 7 9 mph 1026.2mb 50f 31f
7:50 3.5ft 6s 5s 11 16 mph 1025.9mb 50f 31f
6:50 4ft 7s 5s 13 18 mph 1026mb 50f 30f
5:50 4.5ft 7s 5s 9 16 mph 1026.8mb 49f 30f
4:50 5ft 7s 5s 11 16 mph 1026.3mb 49f 31f
3:50 5ft 7s 5s 16 20 mph 1026mb 49f 31f
2:50 5ft 7s 5s 16 22 mph 1026.2mb 48f 31f
1:50 5ft 7s 5s 16 20 mph 1026.1mb 49f 33f
12:50 5ft 6s 5s 18 22 mph 1025.8mb 49f 33f
Qui 02/11 11:50 5ft 7s 5s 18 22 mph 1025.4mb 49f 34f
10:50 5ft 6s 5s 18 25 mph 1025.2mb 49f 36f
9:50 5ft 6s 5s 20 25 mph 1024.7mb 49f 36f
8:50 5ft 6s 5s 20 27 mph 1024mb 49f 36f
7:50 5ft 6s 5s 22 29 mph 1023.6mb 48f 35f
6:50 5ft 6s 5s 22 27 mph 1022.6mb 48f 35f
5:50 5.5ft 6s 5s 22 29 mph 1021.5mb 48f 34f
4:50 6ft 6s 5s 22 29 mph 1021mb 48f 33f
3:50 6ft 6s 5s 27 36 mph 1020.1mb 48f 32f
2:50 6.5ft 6s 5s 22 29 mph 1019.3mb 48f 32f
1:50 6.5ft 6s 5s 25 29 mph 1018.7mb 48f 31f
12:50 7.5ft 6s 5s 25 31 mph 1018.7mb 49f 30f
11:50 7ft 7s 5s 25 34 mph 1019.2mb 49f 30f
10:50 7ft 6s 5s 25 31 mph 1019.2mb 49f 30f
9:50 6.5ft 6s 5s 25 29 mph 1019.3mb 48f 30f
8:50 7ft 6s 5s 25 31 mph 1019mb 48f 31f
7:50 7ft 7s 5s 25 34 mph 1018mb 48f 31f
6:50 7.5ft 7s 6s 22 31 mph 1017.2mb 48f 32f
5:50 7.5ft 7s 5s 25 31 mph 1016.3mb 49f 33f
4:50 7.5ft 6s 5s 25 31 mph 1015mb 49f 33f
3:50 7ft 6s 5s 27 34 mph 1014.2mb 49f 33f
2:50 8ft 6s 5s 29 36 mph 1013.7mb 49f 33f
1:50 8.5ft 7s 5s 31 38 mph 1012.7mb 49f 35f
12:50 9ft 6s 5s 29 36 mph 1012.7mb 49f 36f
Qua 02/10 11:50 7.5ft 5s 5s 34 43 mph 1011.7mb 49f 37f
10:50 6.5ft 5s 5s 27 36 mph 1011.3mb 49f 40f
9:50 6ft 5s 5s 25 34 mph 1010.7mb 49f 41f
8:50 5ft 10s 5s 25 34 mph 1010.5mb 49f 42f
7:50 5ft 12s 5s 20 25 mph 1010.5mb 49f 42f
6:50 5ft 13s 6s 16 20 mph 1010.4mb 49f 41f
5:50 5ft 7s 6s 16 22 mph 1010.3mb 49f 40f
4:50 5.5ft 11s 6s 16 20 mph 1010mb 49f 39f
3:50 5.5ft 12s 6s 13 20 mph 1009.4mb 50f 38f
2:50 6.5ft 5s 6s 16 20 mph 1009.4mb 50f 38f
1:50 7ft 12s 6s 18 22 mph 1009.5mb 50f 37f
11:50 7ft 6s 5s 20 27 mph 1009.8mb 50f 37f
10:50 7ft 13s 5s 20 27 mph 1010.1mb 51f 37f